Time;durP1;ratioP1;P1;durP2;ratioP2;P2;SDS_P1;SDS_P2;PMS_P1;PMS_P2;Temp;Humidity;BMP_temperature;BMP_pressure;BME280_temperature;BME280_humidity;BME280_pressure;Samples;Min_cycle;Max_cycle;Signal;HPM_P1;HPM_P2
2022/01/31 00:01:24;;;;;;;15.18;4.03;;;5.30;99.90;;;;;;5031666;28;20029;-59
2022/01/31 00:03:49;;;;;;;11.52;3.65;;;5.30;99.90;;;;;;5032444;28;20029;-59
2022/01/31 00:06:15;;;;;;;16.88;4.43;;;5.30;99.90;;;;;;5033471;28;20173;-58
2022/01/31 00:08:42;;;;;;;15.23;4.05;;;5.20;99.90;;;;;;5032654;28;20049;-59
2022/01/31 00:11:08;;;;;;;23.42;4.22;;;5.30;99.90;;;;;;5030734;28;20079;-58
2022/01/31 00:13:38;;;;;;;17.23;3.90;;;5.40;99.90;;;;;;5034250;28;20036;-60
2022/01/31 00:16:04;;;;;;;12.18;3.92;;;5.50;99.90;;;;;;5032872;28;20025;-59
2022/01/31 00:18:30;;;;;;;20.98;4.50;;;5.50;99.90;;;;;;5029933;28;20480;-59
2022/01/31 00:20:56;;;;;;;12.82;3.90;;;5.50;99.90;;;;;;5032227;28;20091;-59
2022/01/31 00:23:21;;;;;;;16.05;3.80;;;5.40;99.90;;;;;;5029770;28;20099;-60
2022/01/31 00:25:47;;;;;;;17.27;4.32;;;5.40;99.90;;;;;;5027929;28;20560;-58
2022/01/31 00:28:14;;;;;;;13.38;4.03;;;5.50;99.90;;;;;;5031872;28;20036;-59
2022/01/31 00:30:39;;;;;;;18.65;3.97;;;5.50;99.90;;;;;;5028913;28;20022;-58
2022/01/31 00:33:05;;;;;;;16.80;3.75;;;5.40;99.90;;;;;;5029883;28;20418;-59
2022/01/31 00:35:31;;;;;;;18.05;4.15;;;5.50;99.90;;;;;;5031226;28;20026;-59
2022/01/31 00:37:57;;;;;;;15.63;3.92;;;5.40;99.90;;;;;;5033048;28;20026;-59
2022/01/31 00:40:22;;;;;;;17.23;4.53;;;5.50;99.90;;;;;;5028130;28;20079;-59
2022/01/31 00:42:48;;;;;;;17.15;4.35;;;5.60;99.90;;;;;;5031112;28;20029;-59
2022/01/31 00:45:23;;;;;;;18.98;3.95;;;5.50;99.90;;;;;;5031919;28;20021;-58
2022/01/31 00:47:59;;;;;;;14.80;4.30;;;5.60;99.90;;;;;;5029510;28;20461;-59
2022/01/31 00:50:25;;;;;;;20.02;4.55;;;5.60;99.90;;;;;;5033298;28;20025;-59
2022/01/31 00:52:50;;;;;;;13.63;3.80;;;5.60;99.90;;;;;;5029507;28;20079;-59
2022/01/31 00:55:16;;;;;;;17.52;4.20;;;5.60;99.90;;;;;;5030157;28;20087;-59
2022/01/31 00:57:43;;;;;;;16.17;4.43;;;5.50;99.90;;;;;;5031462;28;20029;-59
2022/01/31 01:00:11;;;;;;;16.85;4.20;;;5.50;99.90;;;;;;5032398;28;20083;-59
2022/01/31 01:02:38;;;;;;;16.98;4.10;;;5.60;99.90;;;;;;5033386;28;20121;-59
2022/01/31 01:05:04;;;;;;;14.45;3.95;;;5.60;99.90;;;;;;5031769;28;20104;-59
2022/01/31 01:07:30;;;;;;;20.23;3.88;;;5.50;99.90;;;;;;5031070;28;20029;-59
2022/01/31 01:09:55;;;;;;;17.98;4.15;;;5.60;99.90;;;;;;5030974;28;20036;-59
2022/01/31 01:12:21;;;;;;;17.27;4.63;;;5.60;99.90;;;;;;5028430;28;20021;-59
2022/01/31 01:14:48;;;;;;;19.73;4.32;;;5.50;99.90;;;;;;5031948;28;20064;-59
2022/01/31 01:17:15;;;;;;;16.33;4.47;;;5.50;99.90;;;;;;5029468;28;20052;-59
2022/01/31 01:19:41;;;;;;;15.30;4.20;;;5.50;99.90;;;;;;5028918;28;20611;-58
2022/01/31 01:22:07;;;;;;;20.70;4.25;;;5.60;99.90;;;;;;5031670;28;20541;-59
2022/01/31 01:24:32;;;;;;;14.02;3.92;;;5.50;99.90;;;;;;5030478;28;20041;-60
2022/01/31 01:26:58;;;;;;;15.73;3.95;;;5.50;99.90;;;;;;5029940;28;20013;-59
2022/01/31 01:29:23;;;;;;;18.30;4.18;;;5.50;99.90;;;;;;5027990;28;20029;-58
2022/01/31 01:31:50;;;;;;;16.67;4.10;;;5.60;99.90;;;;;;5030711;28;20536;-59
2022/01/31 01:34:21;;;;;;;15.80;3.65;;;5.60;99.90;;;;;;5030240;28;20492;-59
2022/01/31 01:36:47;;;;;;;18.17;3.85;;;5.60;99.90;;;;;;5030586;28;20473;-59
2022/01/31 01:39:13;;;;;;;16.50;4.45;;;5.60;99.90;;;;;;5028020;28;20025;-58
2022/01/31 01:41:39;;;;;;;18.23;4.45;;;5.70;99.90;;;;;;5030037;28;20470;-59
2022/01/31 01:44:05;;;;;;;17.52;4.47;;;;;;;;;;5031388;28;20021;-58
2022/01/31 01:46:30;;;;;;;17.70;4.60;;;5.80;99.90;;;;;;5029991;28;20473;-59
2022/01/31 01:48:56;;;;;;;18.73;4.47;;;5.70;99.90;;;;;;5027524;28;20027;-60
2022/01/31 01:51:22;;;;;;;17.58;4.28;;;5.70;99.90;;;;;;5027259;28;20404;-59
2022/01/31 01:53:47;;;;;;;20.17;4.80;;;5.70;99.90;;;;;;5029282;28;20074;-58
2022/01/31 01:56:14;;;;;;;17.67;4.40;;;5.70;99.90;;;;;;5028070;28;20142;-59
2022/01/31 01:58:43;;;;;;;16.35;4.20;;;5.80;99.90;;;;;;5027569;28;20033;-59
2022/01/31 02:01:11;;;;;;;17.25;4.30;;;5.80;99.90;;;;;;5027553;28;20076;-59
2022/01/31 02:03:38;;;;;;;17.25;4.60;;;5.80;99.90;;;;;;5029265;28;20021;-59
2022/01/31 02:06:05;;;;;;;18.05;4.68;;;5.70;99.90;;;;;;5030499;28;20081;-58
2022/01/31 02:08:40;;;;;;;17.42;4.57;;;5.70;99.90;;;;;;5030727;28;20436;-59
2022/01/31 02:11:11;;;;;;;18.17;5.03;;;5.70;99.90;;;;;;5027987;28;20119;-58
2022/01/31 02:13:38;;;;;;;18.50;4.70;;;5.70;99.90;;;;;;5029135;28;20017;-58
2022/01/31 02:16:08;;;;;;;20.70;5.30;;;5.70;99.90;;;;;;5027763;28;20910;-58
2022/01/31 02:18:35;;;;;;;19.63;4.80;;;5.60;99.90;;;;;;5029552;28;20052;-59
2022/01/31 02:21:02;;;;;;;18.45;4.57;;;5.50;99.90;;;;;;5027204;28;20025;-59
2022/01/31 02:23:28;;;;;;;18.73;5.32;;;5.40;99.90;;;;;;5028314;28;20943;-58
2022/01/31 02:26:04;;;;;;;18.30;5.25;;;5.40;99.90;;;;;;5026749;28;20021;-58
2022/01/31 02:28:35;;;;;;;21.27;4.82;;;5.40;99.90;;;;;;5029297;28;20536;-58
2022/01/31 02:31:02;;;;;;;17.25;4.85;;;5.50;99.90;;;;;;5029290;28;20384;-58
2022/01/31 02:33:28;;;;;;;20.85;5.85;;;5.60;99.90;;;;;;5031016;28;20036;-58
2022/01/31 02:36:02;;;;;;;18.35;4.97;;;5.40;99.90;;;;;;5028709;28;20017;-57
2022/01/31 02:38:30;;;;;;;16.98;5.18;;;5.50;99.90;;;;;;5027846;28;20591;-58
2022/01/31 02:40:55;;;;;;;28.08;5.88;;;5.40;99.90;;;;;;5025913;28;20895;-58
2022/01/31 02:43:33;;;;;;;22.02;5.05;;;5.40;99.90;;;;;;5029263;28;20104;-58
2022/01/31 02:45:59;;;;;;;22.20;5.47;;;5.30;99.90;;;;;;5029301;28;20284;-57
2022/01/31 02:48:29;;;;;;;17.02;5.57;;;5.40;99.90;;;;;;5029264;28;20112;-58
2022/01/31 02:50:56;;;;;;;19.38;5.53;;;5.40;99.90;;;;;;5027999;28;20152;-59
2022/01/31 02:55:47;;;;;;;18.20;5.70;;;5.30;99.90;;;;;;5029058;28;20029;-58
2022/01/31 02:58:14;;;;;;;16.55;5.22;;;5.20;99.90;;;;;;5028054;28;20018;-58
2022/01/31 03:00:40;;;;;;;12.45;4.82;;;5.20;99.90;;;;;;5028376;28;20033;-57
2022/01/31 03:03:07;;;;;;;16.98;4.95;;;5.20;99.90;;;;;;5028922;28;20360;-58
2022/01/31 03:05:33;;;;;;;16.75;4.72;;;5.10;99.90;;;;;;5029829;28;20079;-58
2022/01/31 03:07:59;;;;;;;14.05;4.40;;;5.10;99.90;;;;;;5026618;28;20029;-59
2022/01/31 03:10:25;;;;;;;15.05;5.07;;;5.10;99.90;;;;;;5033518;28;20698;-57
2022/01/31 03:12:50;;;;;;;17.27;5.15;;;5.20;99.90;;;;;;5031953;28;20108;-58
2022/01/31 03:15:16;;;;;;;19.17;5.85;;;5.20;99.90;;;;;;5037637;28;20024;-58
2022/01/31 03:17:46;;;;;;;12.93;5.75;;;5.10;99.90;;;;;;5034942;28;20660;-57
2022/01/31 03:20:13;;;;;;;15.77;5.68;;;5.10;99.90;;;;;;5034467;28;20083;-58
2022/01/31 03:22:39;;;;;;;14.30;5.85;;;5.20;99.90;;;;;;5034859;28;20020;-57
2022/01/31 03:25:04;;;;;;;13.90;5.32;;;5.20;99.90;;;;;;5038064;28;20392;-58
2022/01/31 03:27:30;;;;;;;18.13;6.03;;;5.20;99.90;;;;;;5034486;28;20456;-59
2022/01/31 03:29:55;;;;;;;16.73;6.53;;;5.20;99.90;;;;;;5033563;28;20049;-58
2022/01/31 03:32:21;;;;;;;18.42;6.50;;;5.10;99.90;;;;;;5034786;28;20025;-58
2022/01/31 03:34:47;;;;;;;16.27;5.72;;;5.10;99.90;;;;;;5031548;28;20084;-59
2022/01/31 03:37:12;;;;;;;11.82;5.55;;;5.10;99.90;;;;;;5031552;28;20399;-58
2022/01/31 03:39:40;;;;;;;15.35;5.88;;;5.20;99.90;;;;;;5033340;28;20086;-59
2022/01/31 03:42:06;;;;;;;18.23;5.68;;;5.30;99.90;;;;;;5033237;28;20956;-58
2022/01/31 03:44:32;;;;;;;12.65;5.90;;;5.30;99.90;;;;;;5034060;28;20068;-58
2022/01/31 03:46:58;;;;;;;16.48;6.28;;;5.30;99.90;;;;;;5031927;28;20036;-59
2022/01/31 03:49:24;;;;;;;16.60;6.20;;;5.30;99.90;;;;;;5031638;28;20164;-57
2022/01/31 03:51:49;;;;;;;15.35;6.35;;;5.40;99.90;;;;;;5031778;28;20021;-58
2022/01/31 03:54:15;;;;;;;16.98;6.00;;;5.40;99.90;;;;;;5033037;28;20018;-58
2022/01/31 03:56:41;;;;;;;17.35;5.72;;;5.40;99.90;;;;;;5029491;28;20029;-58
2022/01/31 03:59:08;;;;;;;9.75;4.80;;;5.40;99.90;;;;;;5033680;28;20044;-58
2022/01/31 04:01:33;;;;;;;10.77;5.22;;;5.40;99.90;;;;;;5035472;28;20059;-58
2022/01/31 04:03:59;;;;;;;16.25;5.55;;;5.40;99.90;;;;;;5037240;28;20647;-58
2022/01/31 04:06:24;;;;;;;13.48;4.97;;;5.40;99.90;;;;;;5031490;28;20017;-58
2022/01/31 04:08:51;;;;;;;15.25;5.63;;;5.40;99.90;;;;;;5035119;28;20017;-57
2022/01/31 04:11:16;;;;;;;13.82;5.10;;;5.40;99.90;;;;;;5038928;28;20499;-58
2022/01/31 04:13:42;;;;;;;15.15;5.72;;;5.30;99.90;;;;;;5019862;28;20017;-59
2022/01/31 04:16:08;;;;;;;13.27;5.55;;;5.40;99.90;;;;;;5033965;28;20029;-59
2022/01/31 04:18:33;;;;;;;13.13;5.63;;;5.40;99.90;;;;;;5035272;28;20109;-60
2022/01/31 04:21:00;;;;;;;11.43;6.05;;;5.50;99.90;;;;;;5034497;28;20453;-60
2022/01/31 04:23:28;;;;;;;17.20;6.70;;;5.60;99.90;;;;;;5029515;28;20652;-58
2022/01/31 04:26:01;;;;;;;16.13;6.80;;;5.50;99.90;;;;;;5030562;28;20040;-57
2022/01/31 04:28:32;;;;;;;11.00;6.05;;;5.60;99.90;;;;;;5032987;28;20053;-58
2022/01/31 04:31:14;;;;;;;13.60;6.82;;;5.70;99.90;;;;;;5032153;28;20092;-59
2022/01/31 04:33:41;;;;;;;14.48;6.75;;;5.60;99.90;;;;;;5031367;28;20033;-57
2022/01/31 04:36:07;;;;;;;13.20;6.50;;;5.70;99.90;;;;;;5032933;28;20730;-59
2022/01/31 04:38:33;;;;;;;20.00;6.93;;;5.70;99.90;;;;;;5031732;28;20029;-59
2022/01/31 04:40:59;;;;;;;15.57;6.93;;;5.70;99.90;;;;;;5031275;28;20020;-59
2022/01/31 04:43:25;;;;;;;15.75;6.57;;;5.80;99.90;;;;;;5032758;28;20021;-58
2022/01/31 04:45:51;;;;;;;18.65;7.15;;;5.80;99.90;;;;;;5030814;28;20516;-58
2022/01/31 04:48:19;;;;;;;18.73;7.10;;;5.80;99.90;;;;;;5033204;28;20102;-59
2022/01/31 04:50:45;;;;;;;17.80;6.63;;;5.80;99.90;;;;;;5031445;28;20381;-59
2022/01/31 04:53:12;;;;;;;15.98;6.80;;;5.90;99.90;;;;;;5029394;28;20097;-59
2022/01/31 04:55:38;;;;;;;22.30;7.30;;;5.90;99.90;;;;;;5030119;28;20021;-58
2022/01/31 04:58:04;;;;;;;17.70;7.18;;;5.80;99.90;;;;;;5030406;28;20028;-58
2022/01/31 05:00:30;;;;;;;21.60;7.45;;;5.80;99.90;;;;;;5030816;28;20075;-58
2022/01/31 05:02:56;;;;;;;19.35;7.15;;;5.90;99.90;;;;;;5029742;28;20033;-58
2022/01/31 05:05:21;;;;;;;12.05;6.93;;;5.90;99.90;;;;;;5033163;28;20025;-58
2022/01/31 05:07:48;;;;;;;17.63;7.05;;;5.90;99.90;;;;;;5032364;28;20103;-58
2022/01/31 05:10:14;;;;;;;17.83;7.32;;;6.00;99.90;;;;;;5029399;28;20120;-58
2022/01/31 05:12:41;;;;;;;22.25;7.90;;;5.90;99.90;;;;;;5029048;28;20108;-58
2022/01/31 05:15:07;;;;;;;27.42;8.45;;;6.00;99.90;;;;;;5029680;28;20028;-58
2022/01/31 05:17:32;;;;;;;18.42;7.43;;;6.10;99.90;;;;;;5033761;28;20021;-58
2022/01/31 05:19:58;;;;;;;24.90;7.45;;;6.00;99.90;;;;;;5033300;28;20400;-58
2022/01/31 05:22:23;;;;;;;23.83;7.38;;;6.10;99.90;;;;;;5030522;28;20018;-58
2022/01/31 05:24:49;;;;;;;20.92;6.82;;;6.10;99.90;;;;;;5029912;28;20040;-59
2022/01/31 05:27:15;;;;;;;19.02;7.10;;;6.10;99.90;;;;;;5031150;28;20354;-58
2022/01/31 05:29:41;;;;;;;18.80;6.85;;;6.10;99.90;;;;;;5024570;28;20053;-59
2022/01/31 05:32:07;;;;;;;19.42;6.55;;;6.10;99.90;;;;;;5032155;28;20025;-58
2022/01/31 05:34:32;;;;;;;25.30;6.88;;;6.20;99.90;;;;;;5029374;28;20037;-57
2022/01/31 05:36:58;;;;;;;19.73;6.38;;;6.10;99.90;;;;;;5033212;28;20027;-58
2022/01/31 05:39:25;;;;;;;20.65;5.72;;;6.10;99.90;;;;;;5029873;28;20049;-58
2022/01/31 05:41:55;;;;;;;17.73;4.90;;;6.10;99.90;;;;;;5029722;28;20037;-58
2022/01/31 05:44:22;;;;;;;19.25;6.35;;;6.10;99.90;;;;;;5029812;28;20028;-58
2022/01/31 05:46:47;;;;;;;16.38;4.70;;;6.10;99.90;;;;;;5027891;28;20112;-58
2022/01/31 05:49:13;;;;;;;11.52;4.40;;;6.10;99.90;;;;;;5030842;28;20156;-59
2022/01/31 05:51:54;;;;;;;19.63;4.63;;;6.10;99.90;;;;;;5033563;28;20634;-58
2022/01/31 05:54:21;;;;;;;19.25;4.10;;;6.20;99.90;;;;;;5028259;28;20021;-58
2022/01/31 05:56:47;;;;;;;21.55;4.00;;;6.10;99.90;;;;;;5033034;28;20170;-58
2022/01/31 05:59:12;;;;;;;21.88;3.45;;;6.20;99.90;;;;;;5029291;28;20155;-59
2022/01/31 06:01:39;;;;;;;19.65;4.20;;;6.20;99.90;;;;;;5030182;28;20033;-58
2022/01/31 06:04:08;;;;;;;19.50;3.60;;;6.20;99.90;;;;;;5030076;28;20397;-58
2022/01/31 06:06:34;;;;;;;15.30;3.45;;;6.10;99.90;;;;;;5030981;28;20075;-60
2022/01/31 06:09:00;;;;;;;16.10;3.40;;;6.20;99.90;;;;;;5027382;28;20021;-58
2022/01/31 06:11:27;;;;;;;15.07;3.15;;;6.10;99.90;;;;;;5029957;28;20590;-57
2022/01/31 06:13:55;;;;;;;18.27;3.83;;;6.20;99.90;;;;;;5027950;28;20155;-59
2022/01/31 06:16:21;;;;;;;15.73;3.60;;;6.20;99.90;;;;;;5031417;28;20029;-59
2022/01/31 06:18:48;;;;;;;14.07;3.55;;;6.20;99.90;;;;;;5026824;28;20484;-59
2022/01/31 06:21:14;;;;;;;15.65;3.05;;;6.20;99.90;;;;;;5026300;28;20442;-58
2022/01/31 06:23:40;;;;;;;16.58;3.63;;;6.20;99.90;;;;;;5034139;28;20021;-58
2022/01/31 06:26:06;;;;;;;21.30;3.58;;;6.20;99.90;;;;;;5030715;28;20509;-58
2022/01/31 06:28:32;;;;;;;26.65;3.17;;;6.20;99.90;;;;;;5029756;28;20038;-58
2022/01/31 06:30:58;;;;;;;22.17;3.13;;;6.20;99.90;;;;;;5026767;28;20033;-58
2022/01/31 06:33:24;;;;;;;15.27;3.17;;;6.10;99.90;;;;;;5031606;28;20037;-59
2022/01/31 06:35:50;;;;;;;17.75;3.67;;;6.20;99.90;;;;;;5029251;28;20025;-58
2022/01/31 06:38:16;;;;;;;18.25;3.47;;;6.10;99.90;;;;;;5031342;28;20040;-58
2022/01/31 06:40:41;;;;;;;17.83;3.20;;;6.10;99.90;;;;;;5028961;28;20044;-58
2022/01/31 06:43:07;;;;;;;21.20;2.92;;;6.00;99.90;;;;;;5028474;28;20039;-58
2022/01/31 06:45:33;;;;;;;18.52;3.42;;;5.80;99.90;;;;;;5027646;28;20067;-57
2022/01/31 06:47:58;;;;;;;16.50;3.38;;;5.70;99.90;;;;;;5029349;28;20075;-59
2022/01/31 06:50:24;;;;;;;7.43;2.38;;;5.50;99.90;;;;;;5031147;28;20029;-59
2022/01/31 06:52:54;;;;;;;7.18;2.03;;;5.20;99.90;;;;;;5026294;28;20060;-59
2022/01/31 06:55:21;;;;;;;7.10;1.80;;;5.00;99.90;;;;;;5031071;28;20021;-59
2022/01/31 06:57:48;;;;;;;10.15;2.08;;;5.00;99.90;;;;;;5028023;28;20037;-59
2022/01/31 07:00:15;;;;;;;6.45;1.45;;;4.90;99.90;;;;;;5029702;28;20133;-59
2022/01/31 07:02:41;;;;;;;9.23;2.03;;;4.90;99.90;;;;;;5031008;28;20025;-59
2022/01/31 07:05:07;;;;;;;5.50;1.33;;;4.90;99.90;;;;;;5027054;28;20051;-59
2022/01/31 07:07:33;;;;;;;4.47;1.25;;;4.80;99.90;;;;;;5027045;28;20029;-59
2022/01/31 07:10:01;;;;;;;9.18;1.63;;;4.90;99.90;;;;;;5028859;28;20024;-59
2022/01/31 07:12:36;;;;;;;4.38;1.20;;;5.00;99.90;;;;;;5027367;28;20566;-59
2022/01/31 07:15:03;;;;;;;9.35;1.83;;;4.90;99.90;;;;;;5029352;28;20018;-59
2022/01/31 07:17:30;;;;;;;7.70;1.63;;;4.90;99.90;;;;;;5028741;28;20040;-59
2022/01/31 07:19:56;;;;;;;7.30;2.15;;;5.00;99.90;;;;;;5029443;28;20116;-60
2022/01/31 07:22:27;;;;;;;6.60;1.90;;;5.10;99.90;;;;;;5030797;28;20449;-59
2022/01/31 07:25:02;;;;;;;11.20;1.98;;;5.10;99.90;;;;;;5024319;28;20772;-59
2022/01/31 07:27:28;;;;;;;11.75;2.08;;;5.10;99.90;;;;;;5024231;28;20631;-60
2022/01/31 07:29:54;;;;;;;11.18;2.00;;;5.20;99.90;;;;;;5027281;28;20037;-59
2022/01/31 07:32:20;;;;;;;13.00;2.55;;;5.10;99.90;;;;;;5025586;28;20411;-59
2022/01/31 07:34:52;;;;;;;15.85;2.50;;;5.10;99.90;;;;;;5028291;28;20101;-59
2022/01/31 07:37:18;;;;;;;11.60;2.83;;;5.10;99.90;;;;;;5026331;28;20078;-59
2022/01/31 07:39:44;;;;;;;18.27;2.95;;;5.10;99.90;;;;;;5028412;28;20033;-59
2022/01/31 07:42:10;;;;;;;11.98;2.70;;;5.10;99.90;;;;;;5028263;28;20686;-59
2022/01/31 07:44:36;;;;;;;13.07;3.17;;;5.10;99.90;;;;;;5027454;28;20090;-58
2022/01/31 07:47:03;;;;;;;12.27;3.35;;;5.10;99.90;;;;;;5028288;28;20040;-59
2022/01/31 07:49:28;;;;;;;16.67;3.40;;;5.20;99.90;;;;;;5028418;28;20769;-58
2022/01/31 07:51:56;;;;;;;12.05;3.65;;;5.20;99.90;;;;;;5027461;28;20092;-59
2022/01/31 07:54:22;;;;;;;17.58;3.60;;;5.20;99.90;;;;;;5027269;28;20052;-59
2022/01/31 07:56:48;;;;;;;18.98;4.63;;;5.20;99.90;;;;;;5032133;28;20040;-58
2022/01/31 07:59:14;;;;;;;17.08;3.67;;;5.20;99.90;;;;;;5030469;28;20033;-59
2022/01/31 08:01:40;;;;;;;19.48;3.78;;;5.20;99.90;;;;;;5031092;28;20103;-58
2022/01/31 08:04:06;;;;;;;13.18;3.70;;;5.10;99.90;;;;;;5031304;28;20079;-59
2022/01/31 08:06:32;;;;;;;20.88;4.75;;;5.10;99.90;;;;;;5029052;28;20025;-59
2022/01/31 08:08:58;;;;;;;13.00;3.97;;;5.10;99.90;;;;;;5027932;28;20074;-59
2022/01/31 08:11:30;;;;;;;18.45;4.15;;;5.20;99.90;;;;;;5030614;28;20367;-59
2022/01/31 08:13:59;;;;;;;20.35;4.13;;;5.10;99.90;;;;;;5029920;28;20040;-59
2022/01/31 08:16:25;;;;;;;11.88;2.97;;;5.10;99.90;;;;;;5031999;28;20064;-58
2022/01/31 08:18:51;;;;;;;14.65;3.25;;;5.10;99.90;;;;;;5029412;28;20233;-59
2022/01/31 08:21:16;;;;;;;11.98;3.10;;;5.10;99.90;;;;;;5029606;28;20037;-59
2022/01/31 08:23:43;;;;;;;14.40;4.07;;;5.10;99.90;;;;;;5031704;28;20028;-60
2022/01/31 08:26:15;;;;;;;21.65;3.80;;;5.10;99.90;;;;;;5030324;28;20029;-59
2022/01/31 08:28:49;;;;;;;19.02;4.13;;;5.10;99.90;;;;;;5029020;28;20017;-59
2022/01/31 08:31:23;;;;;;;10.73;3.05;;;5.20;99.90;;;;;;5027892;28;20520;-59
2022/01/31 08:36:16;;;;;;;17.63;3.47;;;5.10;99.90;;;;;;5031422;28;20024;-59
2022/01/31 08:38:43;;;;;;;11.40;3.10;;;5.10;99.90;;;;;;5028812;28;20019;-59
2022/01/31 08:41:11;;;;;;;18.52;3.50;;;5.10;99.90;;;;;;5030834;28;21110;-59
2022/01/31 08:43:38;;;;;;;14.38;3.53;;;5.20;99.90;;;;;;5029506;28;20543;-59
2022/01/31 08:46:05;;;;;;;20.23;3.75;;;5.20;99.90;;;;;;5029762;28;20151;-58
2022/01/31 08:48:31;;;;;;;16.98;3.75;;;5.10;99.90;;;;;;5031910;28;20028;-58
2022/01/31 08:50:58;;;;;;;14.65;3.05;;;5.10;99.90;;;;;;5030646;28;20025;-59
2022/01/31 08:53:24;;;;;;;10.57;2.90;;;5.10;99.90;;;;;;5028720;28;20496;-59
2022/01/31 08:55:55;;;;;;;14.18;3.50;;;5.00;99.90;;;;;;5029771;28;20198;-59
2022/01/31 08:58:22;;;;;;;29.35;8.10;;;5.10;99.90;;;;;;5027852;28;20018;-59
2022/01/31 09:00:57;;;;;;;16.50;3.03;;;5.10;99.90;;;;;;5031182;28;20181;-59
2022/01/31 09:04:00;;;;;;;15.05;2.95;;;5.20;99.90;;;;;;5031850;28;20029;-59
2022/01/31 09:06:11;;;;;;;31.83;13.35;;;5.10;99.90;;;;;;5026456;28;20037;-59
2022/01/31 09:08:37;;;;;;;20.15;3.25;;;5.20;99.90;;;;;;5029499;28;20437;-59
2022/01/31 09:11:04;;;;;;;15.82;3.90;;;5.20;99.90;;;;;;5029433;28;20094;-59
2022/01/31 09:13:29;;;;;;;21.58;4.13;;;5.20;99.90;;;;;;5033326;28;20483;-58
2022/01/31 09:15:55;;;;;;;18.05;3.75;;;5.10;99.90;;;;;;5029282;28;20119;-59
2022/01/31 09:18:21;;;;;;;16.23;2.85;;;5.20;99.90;;;;;;5029628;28;20050;-58
2022/01/31 09:20:46;;;;;;;16.98;3.85;;;5.20;99.90;;;;;;5029476;28;20123;-59
2022/01/31 09:23:12;;;;;;;18.40;3.70;;;5.20;99.90;;;;;;5031021;28;20057;-58
2022/01/31 09:25:43;;;;;;;21.52;2.97;;;5.20;99.90;;;;;;5030807;28;20481;-59
2022/01/31 09:28:10;;;;;;;22.13;3.28;;;5.20;99.90;;;;;;5028684;28;20025;-59
2022/01/31 09:30:37;;;;;;;21.27;3.40;;;5.20;99.90;;;;;;5028100;28;20029;-59
2022/01/31 09:33:02;;;;;;;25.40;3.90;;;5.30;99.90;;;;;;5030221;28;20017;-59
2022/01/31 09:35:28;;;;;;;18.77;3.22;;;5.30;99.90;;;;;;5030040;28;20075;-58
2022/01/31 09:37:54;;;;;;;20.35;3.97;;;5.30;99.90;;;;;;5027945;28;20143;-59
2022/01/31 09:40:22;;;;;;;16.20;3.55;;;5.30;99.90;;;;;;5030400;28;20124;-59
2022/01/31 09:43:13;;;;;;;25.35;3.30;;;5.30;99.90;;;;;;5030125;28;20133;-59
2022/01/31 09:51:04;;;;;;;20.20;3.08;;;5.30;99.90;;;;;;5031412;28;20036;-59
2022/01/31 09:53:31;;;;;;;14.43;2.85;;;5.30;99.90;;;;;;5030191;28;20018;-59
2022/01/31 09:55:57;;;;;;;26.15;6.25;;;5.30;99.90;;;;;;5030051;28;20533;-59
2022/01/31 09:58:26;;;;;;;22.80;3.45;;;5.40;99.90;;;;;;5028718;28;20024;-59
2022/01/31 10:01:10;;;;;;;26.05;3.10;;;5.40;99.90;;;;;;5026653;28;20538;-59
2022/01/31 10:03:57;;;;;;;18.33;3.20;;;5.40;99.90;;;;;;5029030;28;20040;-59
2022/01/31 10:06:37;;;;;;;16.05;2.35;;;5.40;99.90;;;;;;5030494;28;20169;-58
2022/01/31 10:09:07;;;;;;;19.08;3.45;;;5.30;99.90;;;;;;5029068;28;20033;-59
2022/01/31 10:16:59;;;;;;;18.13;3.05;;;5.40;99.90;;;;;;5028648;28;20040;-59
2022/01/31 10:19:25;;;;;;;13.63;2.60;;;5.40;99.90;;;;;;5025738;28;20704;-59
2022/01/31 10:22:03;;;;;;;13.90;2.70;;;5.40;99.90;;;;;;5027297;28;20131;-59
2022/01/31 10:24:32;;;;;;;16.02;2.65;;;5.40;99.90;;;;;;5029669;28;20052;-59
2022/01/31 10:27:13;;;;;;;13.95;2.70;;;5.40;99.90;;;;;;5029021;28;20039;-59
2022/01/31 10:29:39;;;;;;;21.88;2.70;;;5.40;99.90;;;;;;5029741;28;20024;-59
2022/01/31 10:32:17;;;;;;;21.92;3.50;;;5.40;99.90;;;;;;5026532;28;20286;-59
2022/01/31 10:34:51;;;;;;;22.80;3.17;;;5.50;99.90;;;;;;5030816;28;20052;-59
2022/01/31 10:37:18;;;;;;;21.48;3.28;;;5.50;99.90;;;;;;5028633;28;20299;-59
2022/01/31 10:45:33;;;;;;;18.13;3.40;;;5.60;99.90;;;;;;5027576;28;20037;-59
2022/01/31 10:51:23;;;;;;;20.85;3.55;;;5.50;99.90;;;;;;5028269;28;20139;-59
2022/01/31 10:54:13;;;;;;;15.25;2.88;;;5.60;99.90;;;;;;5027570;28;20028;-59
2022/01/31 10:56:42;;;;;;;20.00;3.55;;;5.50;99.90;;;;;;5025769;28;20041;-59
2022/01/31 10:59:12;;;;;;;33.72;4.63;;;5.60;99.90;;;;;;5026359;28;20413;-58
2022/01/31 11:01:39;;;;;;;21.13;4.03;;;5.50;99.90;;;;;;5030593;28;20036;-57
2022/01/31 11:04:07;;;;;;;21.20;3.70;;;5.40;99.90;;;;;;5028730;28;20029;-59
2022/01/31 11:06:33;;;;;;;25.55;4.55;;;5.50;99.90;;;;;;5027344;28;20052;-60
2022/01/31 11:09:08;;;;;;;25.33;4.22;;;5.50;99.90;;;;;;5028764;28;20037;-59
2022/01/31 11:11:35;;;;;;;32.38;5.53;;;5.50;99.90;;;;;;5030028;28;20025;-58
2022/01/31 11:14:03;;;;;;;22.08;4.32;;;5.50;99.90;;;;;;5029241;28;20573;-59
2022/01/31 11:16:29;;;;;;;25.15;4.60;;;5.50;99.90;;;;;;5016762;28;20069;-59
2022/01/31 11:18:58;;;;;;;38.45;5.60;;;5.50;99.90;;;;;;5029250;28;20029;-59
2022/01/31 11:21:28;;;;;;;36.75;5.38;;;5.50;99.90;;;;;;5027190;28;20044;-59
2022/01/31 11:24:01;;;;;;;30.92;6.15;;;5.50;99.90;;;;;;5030245;28;20400;-60
2022/01/31 11:26:39;;;;;;;41.60;7.28;;;5.50;99.90;;;;;;5029251;28;20435;-60
2022/01/31 11:29:08;;;;;;;37.33;6.28;;;5.60;99.90;;;;;;5028131;28;20021;-59
2022/01/31 11:31:36;;;;;;;33.63;5.68;;;5.70;99.90;;;;;;5030478;28;20025;-60
2022/01/31 11:34:04;;;;;;;29.65;4.18;;;5.70;99.90;;;;;;5022306;28;20086;-60
2022/01/31 11:36:32;;;;;;;36.78;5.57;;;5.70;99.90;;;;;;5033164;28;20097;-60
2022/01/31 11:38:59;;;;;;;31.17;6.13;;;5.80;99.90;;;;;;5030257;28;20036;-60
2022/01/31 11:41:25;;;;;;;46.30;6.03;;;5.80;99.90;;;;;;5030563;28;20064;-59
2022/01/31 11:44:24;;;;;;;37.92;5.65;;;5.80;99.90;;;;;;5028710;28;20078;-59
2022/01/31 11:46:50;;;;;;;31.45;6.22;;;5.80;99.90;;;;;;5029677;28;20441;-60
2022/01/31 11:49:18;;;;;;;26.83;4.65;;;5.80;99.90;;;;;;5028071;28;20024;-59
2022/01/31 11:52:05;;;;;;;32.13;5.75;;;5.80;99.90;;;;;;5031537;28;20039;-60
2022/01/31 11:54:30;;;;;;;33.00;5.60;;;5.80;99.90;;;;;;5027143;28;20880;-59
2022/01/31 11:56:56;;;;;;;36.92;5.95;;;5.80;99.90;;;;;;5030257;28;20025;-61
2022/01/31 11:59:24;;;;;;;31.73;5.35;;;5.80;99.90;;;;;;5032043;28;20109;-60
2022/01/31 12:01:51;;;;;;;28.55;5.72;;;5.80;99.90;;;;;;5030620;28;20064;-60
2022/01/31 12:04:22;;;;;;;35.20;6.85;;;5.70;99.90;;;;;;5031822;28;20028;-60
2022/01/31 12:06:48;;;;;;;29.88;4.95;;;5.70;99.90;;;;;;5028996;28;20021;-60
2022/01/31 12:09:17;;;;;;;29.73;5.55;;;5.80;99.90;;;;;;5028828;28;20397;-60
2022/01/31 12:12:10;;;;;;;37.75;5.75;;;5.70;99.90;;;;;;5030949;28;20028;-60
2022/01/31 12:14:49;;;;;;;37.10;5.50;;;5.90;99.90;;;;;;5030258;28;20453;-59
2022/01/31 12:18:18;;;;;;;30.20;4.93;;;5.80;99.90;;;;;;5030471;28;20104;-59
2022/01/31 12:23:39;;;;;;;18.15;2.75;;;5.70;99.90;;;;;;5024779;28;20067;-59
2022/01/31 12:26:27;;;;;;;27.85;4.45;;;5.60;99.90;;;;;;5031164;28;20040;-59
2022/01/31 12:28:58;;;;;;;25.83;4.28;;;5.60;99.90;;;;;;5029680;28;20029;-59
2022/01/31 12:31:35;;;;;;;24.40;3.67;;;5.60;99.90;;;;;;5030190;28;20041;-59
2022/01/31 12:34:20;;;;;;;21.40;3.78;;;5.60;99.90;;;;;;5031225;28;20060;-59
2022/01/31 12:36:50;;;;;;;18.70;3.78;;;5.60;99.90;;;;;;5029295;28;20029;-59
2022/01/31 12:39:32;;;;;;;24.27;4.22;;;5.60;99.90;;;;;;5029147;28;20770;-58
2022/01/31 12:42:02;;;;;;;26.02;4.65;;;5.50;99.90;;;;;;5029323;28;20033;-59
2022/01/31 12:44:38;;;;;;;22.77;4.35;;;5.60;99.90;;;;;;5029443;28;20041;-59
2022/01/31 12:47:17;;;;;;;19.55;4.05;;;5.60;99.90;;;;;;5030119;28;20017;-59
2022/01/31 12:49:44;;;;;;;18.15;3.30;;;5.60;99.90;;;;;;5031669;28;20039;-57
2022/01/31 12:52:11;;;;;;;25.40;4.40;;;5.60;99.90;;;;;;5028684;28;20025;-58
2022/01/31 12:54:39;;;;;;;23.15;3.72;;;5.60;99.90;;;;;;5028098;28;20037;-58
2022/01/31 12:57:10;;;;;;;18.17;3.17;;;5.50;99.90;;;;;;5028871;28;20059;-58
2022/01/31 12:59:37;;;;;;;25.05;4.43;;;5.50;99.90;;;;;;5028588;28;20139;-58
2022/01/31 13:02:09;;;;;;;22.48;3.53;;;5.60;99.90;;;;;;5027904;28;20025;-59
2022/01/31 13:04:35;;;;;;;21.80;4.05;;;5.50;99.90;;;;;;5030349;28;20083;-58
2022/01/31 13:07:09;;;;;;;21.92;3.78;;;5.60;99.90;;;;;;5029323;28;20605;-58
2022/01/31 13:09:37;;;;;;;;;;;5.60;99.90;;;;;;5029246;28;20029;-58
2022/01/31 13:12:10;;;;;;;20.00;3.25;;;5.60;99.90;;;;;;5027004;28;20004;-58
2022/01/31 13:14:42;;;;;;;31.63;5.25;;;5.60;99.90;;;;;;5025524;28;20471;-59
2022/01/31 13:17:19;;;;;;;16.40;3.78;;;5.60;99.90;;;;;;5026104;28;20053;-58
2022/01/31 13:19:52;;;;;;;20.77;3.67;;;5.70;99.90;;;;;;5027632;28;20604;-58
2022/01/31 13:22:40;;;;;;;21.15;3.90;;;5.70;99.90;;;;;;5025726;28;20525;-59